Time;durP1;ratioP1;P1;durP2;ratioP2;P2;SDS_P1;SDS_P2;PMS_P1;PMS_P2;Temp;Humidity;BMP_temperature;BMP_pressure;BME280_temperature;BME280_humidity;BME280_pressure;Samples;Min_cycle;Max_cycle;Signal;HPM_P1;HPM_P2
2022/01/29 00:01:05;;;;;;;7.25;3.67;;;2.10;99.90;;;;;;4939070;28;20167;-50
2022/01/29 00:03:30;;;;;;;8.30;4.18;;;2.10;99.90;;;;;;4941847;28;20035;-49
2022/01/29 00:05:58;;;;;;;5.72;3.70;;;2.10;99.90;;;;;;4948190;28;20052;-50
2022/01/29 00:08:24;;;;;;;6.97;4.28;;;2.10;99.90;;;;;;4945236;28;20039;-50
2022/01/29 00:10:55;;;;;;;7.28;3.58;;;2.00;99.90;;;;;;4946148;28;20042;-50
2022/01/29 00:13:20;;;;;;;7.00;4.05;;;1.90;99.90;;;;;;4946211;28;20126;-51
2022/01/29 00:15:46;;;;;;;7.82;4.55;;;1.90;99.90;;;;;;4944582;28;21474;-49
2022/01/29 00:18:12;;;;;;;93.28;22.85;;;1.90;99.90;;;;;;4946606;28;20027;-49
2022/01/29 00:20:38;;;;;;;104.22;24.27;;;1.90;99.90;;;;;;4942439;28;20468;-49
2022/01/29 00:23:03;;;;;;;24.98;7.57;;;1.90;99.90;;;;;;4943512;28;20038;-49
2022/01/29 00:25:29;;;;;;;10.32;4.30;;;1.80;99.90;;;;;;4945468;28;20030;-50
2022/01/29 00:27:56;;;;;;;21.15;6.63;;;1.80;99.90;;;;;;4944130;28;20024;-51
2022/01/29 00:30:29;;;;;;;7.97;4.75;;;1.80;99.90;;;;;;4944064;28;20288;-49
2022/01/29 00:32:55;;;;;;;4.90;3.45;;;1.80;99.90;;;;;;4941416;28;20487;-49
2022/01/29 00:35:21;;;;;;;7.90;3.80;;;1.70;99.90;;;;;;4944065;28;20111;-49
2022/01/29 00:37:47;;;;;;;9.05;4.50;;;1.70;99.90;;;;;;4943743;28;20039;-50
2022/01/29 00:40:13;;;;;;;4.90;3.53;;;1.60;99.90;;;;;;4937505;28;20165;-52
2022/01/29 00:42:39;;;;;;;7.20;3.75;;;1.60;99.90;;;;;;4944667;28;20028;-51
2022/01/29 00:45:06;;;;;;;9.63;3.65;;;1.60;99.90;;;;;;4942114;28;20034;-50
2022/01/29 00:47:32;;;;;;;9.63;4.15;;;1.50;99.90;;;;;;4943057;28;20098;-50
2022/01/29 00:49:58;;;;;;;6.38;4.35;;;1.50;99.90;;;;;;4940475;28;20141;-49
2022/01/29 00:52:24;;;;;;;6.38;4.00;;;1.50;99.90;;;;;;4946203;28;20151;-50
2022/01/29 00:54:49;;;;;;;5.15;3.33;;;1.50;99.90;;;;;;4945772;28;20038;-49
2022/01/29 00:57:15;;;;;;;7.45;4.10;;;1.50;99.90;;;;;;4950306;28;20019;-50
2022/01/29 00:59:41;;;;;;;9.60;4.53;;;1.50;99.90;;;;;;4953394;28;20396;-49
2022/01/29 01:02:09;;;;;;;6.20;4.13;;;1.60;99.90;;;;;;4946978;28;20031;-49
2022/01/29 01:04:39;;;;;;;4.95;3.80;;;1.60;99.90;;;;;;4948294;28;20061;-50
2022/01/29 01:07:07;;;;;;;6.72;4.75;;;1.60;99.90;;;;;;4948724;28;20539;-49
2022/01/29 01:09:32;;;;;;;6.22;3.78;;;1.60;99.90;;;;;;4948751;28;20035;-49
2022/01/29 01:11:58;;;;;;;7.10;4.20;;;1.60;99.90;;;;;;4947781;28;20114;-50
2022/01/29 01:14:24;;;;;;;17.08;8.57;;;1.60;99.90;;;;;;4948882;28;20810;-49
2022/01/29 01:16:49;;;;;;;14.25;5.90;;;1.60;99.90;;;;;;4950858;28;20027;-49
2022/01/29 01:19:15;;;;;;;12.18;6.05;;;1.60;99.90;;;;;;4948080;28;20399;-49
2022/01/29 01:21:41;;;;;;;8.20;4.70;;;1.60;99.90;;;;;;4948691;28;20031;-49
2022/01/29 01:24:06;;;;;;;6.22;4.57;;;1.60;99.90;;;;;;4952853;28;20032;-49
2022/01/29 01:26:32;;;;;;;6.25;3.97;;;1.60;99.90;;;;;;4951390;28;20027;-49
2022/01/29 01:28:58;;;;;;;9.05;4.22;;;1.60;99.90;;;;;;4949619;28;20396;-50
2022/01/29 01:31:23;;;;;;;6.43;4.43;;;1.50;99.90;;;;;;4949494;28;20043;-50
2022/01/29 01:33:50;;;;;;;8.73;4.68;;;1.60;99.90;;;;;;4951456;28;20043;-50
2022/01/29 01:36:19;;;;;;;9.40;4.18;;;1.60;99.90;;;;;;4952836;28;20078;-50
2022/01/29 01:39:07;;;;;;;5.63;4.70;;;1.60;99.90;;;;;;4949678;28;20035;-50
2022/01/29 01:41:39;;;;;;;5.68;4.20;;;1.50;99.90;;;;;;4947056;28;20055;-49
2022/01/29 01:44:05;;;;;;;5.80;4.70;;;1.50;99.90;;;;;;4951405;28;20429;-50
2022/01/29 01:46:30;;;;;;;6.13;4.00;;;1.50;99.90;;;;;;4951014;28;20039;-50
2022/01/29 01:48:57;;;;;;;7.03;4.10;;;1.50;99.90;;;;;;4948546;28;20050;-49
2022/01/29 01:51:24;;;;;;;5.38;3.75;;;1.50;99.90;;;;;;4948190;28;20436;-51
2022/01/29 01:53:50;;;;;;;8.82;4.32;;;1.50;99.90;;;;;;4952639;28;20032;-50
2022/01/29 01:56:16;;;;;;;7.38;3.80;;;1.50;99.90;;;;;;4947428;28;20062;-50
2022/01/29 01:58:41;;;;;;;4.15;3.72;;;1.50;99.90;;;;;;4948835;28;20162;-49
2022/01/29 02:01:07;;;;;;;5.43;3.38;;;1.50;99.90;;;;;;4950946;28;20631;-49
2022/01/29 02:03:33;;;;;;;5.22;4.10;;;1.40;99.90;;;;;;4949299;28;20077;-49
2022/01/29 02:05:59;;;;;;;4.07;3.58;;;1.40;99.90;;;;;;4942906;28;20054;-50
2022/01/29 02:08:25;;;;;;;6.85;4.10;;;1.40;99.90;;;;;;4944871;28;20034;-50
2022/01/29 02:10:51;;;;;;;8.38;3.35;;;1.40;99.90;;;;;;4948184;28;20034;-50
2022/01/29 02:13:17;;;;;;;7.30;4.40;;;1.40;99.90;;;;;;4946661;28;20042;-50
2022/01/29 02:15:43;;;;;;;6.05;3.53;;;1.50;99.90;;;;;;4945846;28;20035;-50
2022/01/29 02:18:15;;;;;;;5.55;4.28;;;1.50;99.90;;;;;;4948084;28;20031;-49
2022/01/29 02:20:43;;;;;;;6.35;4.05;;;1.50;99.90;;;;;;4943434;28;20039;-49
2022/01/29 02:23:09;;;;;;;4.68;2.97;;;1.50;99.90;;;;;;4949058;28;20038;-50
2022/01/29 02:25:45;;;;;;;6.30;4.53;;;1.50;99.90;;;;;;4942425;28;20043;-50
2022/01/29 02:28:16;;;;;;;4.90;3.50;;;1.50;99.90;;;;;;4944774;28;20043;-50
2022/01/29 02:30:45;;;;;;;5.95;4.10;;;1.50;99.90;;;;;;4943732;28;20035;-50
2022/01/29 02:33:14;;;;;;;8.55;4.13;;;1.50;99.90;;;;;;4947558;28;20035;-50
2022/01/29 02:35:48;;;;;;;5.80;4.07;;;1.60;99.90;;;;;;4946837;28;20159;-50
2022/01/29 02:38:17;;;;;;;8.23;3.70;;;1.60;99.90;;;;;;4949391;28;20039;-50
2022/01/29 02:40:46;;;;;;;4.18;3.03;;;1.50;99.90;;;;;;4946088;28;20528;-50
2022/01/29 02:43:17;;;;;;;6.55;3.72;;;1.50;99.90;;;;;;4948411;28;20089;-52
2022/01/29 02:45:44;;;;;;;5.72;3.58;;;1.60;99.90;;;;;;4942998;28;21246;-51
2022/01/29 02:48:10;;;;;;;4.85;3.35;;;1.60;99.90;;;;;;4947998;28;20051;-50
2022/01/29 02:50:37;;;;;;;7.40;3.75;;;1.60;99.90;;;;;;4948888;28;20500;-51
2022/01/29 02:53:03;;;;;;;6.25;4.47;;;1.60;99.90;;;;;;4938781;28;20035;-50
2022/01/29 02:55:29;;;;;;;5.80;3.92;;;1.60;99.90;;;;;;4947687;28;20507;-50
2022/01/29 02:57:55;;;;;;;4.68;3.45;;;1.60;99.90;;;;;;4946354;28;20051;-51
2022/01/29 03:00:21;;;;;;;4.93;4.05;;;1.50;99.90;;;;;;4945693;28;20023;-51
2022/01/29 03:02:47;;;;;;;6.00;3.50;;;1.50;99.90;;;;;;4941900;28;20053;-50
2022/01/29 03:05:13;;;;;;;10.05;4.18;;;1.60;99.90;;;;;;4944728;28;20031;-50
2022/01/29 03:07:38;;;;;;;3.58;2.70;;;1.60;99.90;;;;;;4942394;28;20082;-50
2022/01/29 03:10:05;;;;;;;4.03;3.10;;;1.60;99.90;;;;;;4946989;28;20039;-50
2022/01/29 03:12:31;;;;;;;3.88;3.35;;;1.60;99.90;;;;;;4944204;28;20485;-50
2022/01/29 03:14:57;;;;;;;7.22;4.68;;;1.50;99.90;;;;;;4944144;28;20082;-53
2022/01/29 03:17:22;;;;;;;5.10;3.00;;;1.60;99.90;;;;;;4943579;28;20126;-50
2022/01/29 03:19:50;;;;;;;6.70;3.75;;;1.60;99.90;;;;;;4941892;28;20498;-51
2022/01/29 03:22:16;;;;;;;8.93;4.25;;;1.50;99.90;;;;;;4943669;28;20058;-50
2022/01/29 03:24:42;;;;;;;3.67;2.97;;;1.60;99.90;;;;;;4942693;28;20023;-50
2022/01/29 03:27:07;;;;;;;6.88;3.60;;;1.60;99.90;;;;;;4943231;28;20031;-50
2022/01/29 03:29:33;;;;;;;4.13;3.78;;;1.60;99.90;;;;;;4946141;28;20031;-50
2022/01/29 03:31:58;;;;;;;7.30;4.13;;;1.60;99.90;;;;;;4944888;28;20036;-50
2022/01/29 03:34:24;;;;;;;6.97;3.88;;;1.60;99.90;;;;;;4947569;28;20534;-50
2022/01/29 03:36:50;;;;;;;6.65;4.18;;;1.60;99.90;;;;;;4944252;28;20042;-51
2022/01/29 03:39:15;;;;;;;13.13;6.80;;;1.60;99.90;;;;;;4942575;28;20422;-50
2022/01/29 03:41:41;;;;;;;6.55;4.00;;;1.50;99.90;;;;;;4942655;28;20114;-52
2022/01/29 03:44:07;;;;;;;5.68;3.97;;;1.50;99.90;;;;;;4945921;28;20512;-51
2022/01/29 03:46:33;;;;;;;7.43;4.05;;;1.50;99.90;;;;;;4945177;28;20034;-50
2022/01/29 03:48:59;;;;;;;6.03;4.30;;;1.50;99.90;;;;;;4945650;28;20059;-50
2022/01/29 03:51:25;;;;;;;6.93;3.45;;;1.50;99.90;;;;;;4941771;28;20027;-49
2022/01/29 03:53:51;;;;;;;3.90;3.53;;;1.50;99.90;;;;;;4944295;28;20514;-49
2022/01/29 03:56:17;;;;;;;5.00;4.18;;;1.50;99.90;;;;;;4946667;28;20027;-49
2022/01/29 03:58:44;;;;;;;4.30;3.42;;;1.50;99.90;;;;;;4947963;28;20366;-49
2022/01/29 04:01:10;;;;;;;4.80;3.25;;;1.50;99.90;;;;;;4948143;28;20394;-50
2022/01/29 04:03:36;;;;;;;3.60;3.30;;;1.50;99.90;;;;;;4943883;28;20035;-50
2022/01/29 04:06:02;;;;;;;4.63;3.88;;;1.50;99.90;;;;;;4945049;28;20042;-50
2022/01/29 04:08:28;;;;;;;6.95;3.60;;;1.50;99.90;;;;;;4948793;28;20049;-50
2022/01/29 04:10:53;;;;;;;6.75;2.97;;;1.50;99.90;;;;;;4949727;28;20404;-50
2022/01/29 04:13:25;;;;;;;5.22;3.22;;;1.50;99.90;;;;;;4945116;28;20127;-49
2022/01/29 04:15:50;;;;;;;6.15;3.40;;;1.40;99.90;;;;;;4941179;28;20027;-50
2022/01/29 04:18:16;;;;;;;6.00;3.53;;;1.40;99.90;;;;;;4942319;28;20094;-50
2022/01/29 04:20:43;;;;;;;5.85;3.17;;;1.50;99.90;;;;;;4945036;28;20089;-50
2022/01/29 04:23:09;;;;;;;6.07;3.25;;;1.50;99.90;;;;;;4939830;28;20035;-50
2022/01/29 04:25:35;;;;;;;3.90;2.83;;;1.50;99.90;;;;;;4941565;28;20054;-50
2022/01/29 04:28:01;;;;;;;4.40;2.72;;;1.50;99.90;;;;;;4939962;28;20050;-50
2022/01/29 04:30:32;;;;;;;4.07;3.03;;;1.50;99.90;;;;;;4937814;28;20055;-49
2022/01/29 04:33:15;;;;;;;4.00;2.55;;;1.50;99.90;;;;;;4942184;28;20050;-50
2022/01/29 04:35:40;;;;;;;2.28;2.08;;;1.50;99.90;;;;;;4940944;28;20038;-50
2022/01/29 04:38:06;;;;;;;4.03;3.25;;;1.50;99.90;;;;;;4944754;28;20034;-50
2022/01/29 04:40:34;;;;;;;4.38;2.83;;;1.50;99.90;;;;;;4945557;28;20081;-50
2022/01/29 04:42:59;;;;;;;6.47;2.60;;;1.60;99.90;;;;;;4944620;28;20035;-50
2022/01/29 04:45:25;;;;;;;3.80;2.72;;;1.60;99.90;;;;;;4943186;28;20101;-51
2022/01/29 04:47:51;;;;;;;6.00;2.53;;;1.60;99.90;;;;;;4943374;28;20057;-50
2022/01/29 04:50:16;;;;;;;5.28;2.80;;;1.60;99.90;;;;;;4941212;28;20102;-50
2022/01/29 04:52:42;;;;;;;3.80;2.45;;;1.60;99.90;;;;;;4938337;28;20047;-49
2022/01/29 04:55:09;;;;;;;3.22;2.47;;;1.60;99.90;;;;;;4947820;28;20114;-51
2022/01/29 04:57:37;;;;;;;5.20;2.30;;;1.60;99.90;;;;;;4943509;28;20416;-49
2022/01/29 05:00:07;;;;;;;8.65;3.13;;;1.60;99.90;;;;;;4946877;28;20126;-49
2022/01/29 05:02:33;;;;;;;2.63;2.42;;;1.60;99.90;;;;;;4941950;28;20155;-49
2022/01/29 05:04:58;;;;;;;5.68;2.47;;;1.60;99.90;;;;;;4939635;28;20119;-50
2022/01/29 05:07:24;;;;;;;4.18;2.88;;;1.60;99.90;;;;;;4944741;28;20031;-50
2022/01/29 05:09:50;;;;;;;2.97;2.70;;;1.60;99.90;;;;;;4943417;28;20027;-50
2022/01/29 05:12:21;;;;;;;6.45;2.90;;;1.60;99.90;;;;;;4943349;28;20031;-49
2022/01/29 05:15:14;;;;;;;2.97;2.50;;;1.60;99.90;;;;;;4938026;28;20039;-50
2022/01/29 05:28:37;;;;;;;3.17;2.55;;;1.70;99.90;;;;;;4941834;28;20098;-50
2022/01/29 05:31:02;;;;;;;3.15;2.67;;;1.70;99.90;;;;;;4941003;28;20528;-50
2022/01/29 05:33:28;;;;;;;8.75;2.88;;;1.70;99.90;;;;;;4944072;28;20591;-50
2022/01/29 05:35:54;;;;;;;3.70;3.08;;;1.70;99.90;;;;;;4937755;28;20031;-50
2022/01/29 05:38:19;;;;;;;5.68;3.03;;;1.70;99.90;;;;;;4944426;28;20645;-50
2022/01/29 05:40:45;;;;;;;4.60;3.10;;;1.70;99.90;;;;;;4942187;28;20388;-50
2022/01/29 05:43:11;;;;;;;5.90;3.17;;;1.70;99.90;;;;;;4945077;28;20027;-50
2022/01/29 05:45:37;;;;;;;9.75;3.42;;;1.70;99.90;;;;;;4943332;28;20379;-50
2022/01/29 05:48:03;;;;;;;3.85;2.65;;;1.70;99.90;;;;;;4945673;28;20042;-50
2022/01/29 05:50:28;;;;;;;4.03;2.40;;;1.70;99.90;;;;;;4946792;28;20122;-50
2022/01/29 05:52:54;;;;;;;4.85;2.65;;;1.70;99.90;;;;;;4947353;28;20054;-49
2022/01/29 05:55:20;;;;;;;3.40;2.97;;;1.80;99.90;;;;;;4950013;28;20030;-49
2022/01/29 05:57:45;;;;;;;5.78;2.75;;;1.80;99.90;;;;;;4949050;28;20031;-50
2022/01/29 06:00:11;;;;;;;3.42;2.53;;;1.80;99.90;;;;;;4949164;28;20424;-50
2022/01/29 06:02:37;;;;;;;2.92;2.60;;;1.80;99.90;;;;;;4942854;28;20061;-50
2022/01/29 06:05:03;;;;;;;6.53;2.88;;;1.80;99.90;;;;;;4940857;28;20114;-50
2022/01/29 06:07:28;;;;;;;3.15;2.42;;;1.80;99.90;;;;;;4946924;28;22528;-50
2022/01/29 06:09:54;;;;;;;3.92;2.67;;;1.80;99.90;;;;;;4945813;28;20172;-50
2022/01/29 06:12:20;;;;;;;2.58;2.38;;;1.90;99.90;;;;;;4947968;28;20031;-50
2022/01/29 06:14:45;;;;;;;3.20;2.20;;;1.90;99.90;;;;;;4945984;28;20106;-50
2022/01/29 06:17:11;;;;;;;5.57;2.88;;;1.90;99.90;;;;;;4948856;28;20027;-50
2022/01/29 06:19:37;;;;;;;4.10;2.80;;;1.90;99.90;;;;;;4946246;28;20035;-50
2022/01/29 06:22:08;;;;;;;5.43;3.13;;;2.00;99.90;;;;;;4943515;28;20046;-50
2022/01/29 06:24:34;;;;;;;4.63;3.00;;;2.00;99.90;;;;;;4952029;28;20110;-50
2022/01/29 06:27:00;;;;;;;3.47;2.97;;;2.00;99.90;;;;;;4949123;28;20126;-51
2022/01/29 06:29:25;;;;;;;6.22;2.78;;;1.90;99.90;;;;;;4947735;28;20034;-50
2022/01/29 06:31:51;;;;;;;4.63;2.95;;;2.00;99.90;;;;;;4948295;28;20054;-50
2022/01/29 06:34:16;;;;;;;5.00;3.53;;;2.00;99.90;;;;;;4945905;28;20444;-50
2022/01/29 06:36:42;;;;;;;3.80;2.80;;;2.00;99.90;;;;;;4943736;28;20074;-50
2022/01/29 06:39:08;;;;;;;5.50;3.17;;;2.00;99.90;;;;;;4946810;28;20030;-50
2022/01/29 06:41:33;;;;;;;5.32;3.03;;;2.00;99.90;;;;;;4944110;28;20141;-50
2022/01/29 06:44:00;;;;;;;3.03;2.47;;;2.00;99.90;;;;;;4949435;28;20413;-50
2022/01/29 06:46:26;;;;;;;5.22;3.45;;;2.00;99.90;;;;;;4946078;28;20035;-50
2022/01/29 06:48:52;;;;;;;8.35;3.40;;;2.00;99.90;;;;;;4945018;28;20051;-49
2022/01/29 06:51:18;;;;;;;4.00;3.05;;;2.10;99.90;;;;;;4944889;28;20038;-50
2022/01/29 06:53:44;;;;;;;8.65;3.75;;;2.10;99.90;;;;;;4944942;28;20400;-50
2022/01/29 06:56:09;;;;;;;5.93;3.22;;;2.10;99.90;;;;;;4943031;28;20053;-50
2022/01/29 06:58:35;;;;;;;4.15;2.85;;;2.10;99.90;;;;;;4945481;28;20043;-49
2022/01/29 07:01:02;;;;;;;4.07;2.83;;;2.10;99.90;;;;;;4939986;28;20146;-50
2022/01/29 07:03:28;;;;;;;4.45;3.30;;;2.10;99.90;;;;;;4944221;28;20077;-50
2022/01/29 07:05:53;;;;;;;7.68;3.03;;;2.20;99.90;;;;;;4943474;28;20039;-49
2022/01/29 07:08:19;;;;;;;5.82;3.85;;;2.20;99.90;;;;;;4940159;28;20039;-50
2022/01/29 07:10:46;;;;;;;6.10;2.95;;;2.20;99.90;;;;;;4939326;28;20031;-50
2022/01/29 07:13:11;;;;;;;7.25;3.28;;;2.30;99.90;;;;;;4944552;28;20065;-50
2022/01/29 07:15:37;;;;;;;5.63;3.67;;;2.30;99.90;;;;;;4942560;28;20062;-50
2022/01/29 07:18:03;;;;;;;6.95;3.33;;;2.30;99.90;;;;;;4941019;28;20039;-50
2022/01/29 07:20:29;;;;;;;3.10;2.80;;;2.30;99.90;;;;;;4945632;28;20035;-51
2022/01/29 07:22:54;;;;;;;6.85;3.95;;;2.30;99.90;;;;;;4942679;28;20484;-51
2022/01/29 07:25:20;;;;;;;5.30;3.28;;;2.40;99.90;;;;;;4939137;28;20049;-49
2022/01/29 07:27:45;;;;;;;4.22;3.38;;;2.30;99.90;;;;;;4941779;28;20552;-50
2022/01/29 07:30:11;;;;;;;7.60;3.72;;;2.40;99.90;;;;;;4936672;28;20035;-50
2022/01/29 07:32:45;;;;;;;6.10;3.50;;;2.40;99.90;;;;;;4941206;28;20805;-50
2022/01/29 07:35:11;;;;;;;4.28;2.85;;;2.40;99.90;;;;;;4946860;28;20724;-51
2022/01/29 07:37:37;;;;;;;5.13;3.22;;;2.40;99.90;;;;;;4946064;28;20035;-50
2022/01/29 07:40:03;;;;;;;4.00;3.22;;;2.40;99.90;;;;;;4947171;28;20037;-50
2022/01/29 07:42:29;;;;;;;8.10;3.22;;;2.40;99.90;;;;;;4948350;28;20433;-50
2022/01/29 07:44:54;;;;;;;5.30;3.33;;;2.40;99.90;;;;;;4941984;28;20038;-50
2022/01/29 07:47:20;;;;;;;7.22;3.47;;;2.40;99.90;;;;;;4937060;28;20041;-50
2022/01/29 07:49:45;;;;;;;6.40;3.03;;;2.40;99.90;;;;;;4943725;28;20063;-50
2022/01/29 07:52:11;;;;;;;7.20;3.85;;;2.50;99.90;;;;;;4942140;28;20033;-50
2022/01/29 07:54:37;;;;;;;7.10;4.32;;;2.50;99.90;;;;;;4945365;28;20039;-51
2022/01/29 07:57:02;;;;;;;6.25;3.75;;;2.50;99.90;;;;;;4940269;28;20035;-50
2022/01/29 07:59:28;;;;;;;6.28;3.65;;;2.50;99.90;;;;;;4939339;28;20019;-50
2022/01/29 08:01:54;;;;;;;6.90;3.72;;;2.50;99.90;;;;;;4941552;28;20035;-50
2022/01/29 08:04:23;;;;;;;10.10;4.20;;;2.60;99.90;;;;;;4941014;28;20162;-50
2022/01/29 08:06:48;;;;;;;9.13;3.95;;;2.60;99.90;;;;;;4941495;28;20039;-50
2022/01/29 08:09:14;;;;;;;7.32;4.80;;;2.60;99.90;;;;;;4945757;28;20163;-50
2022/01/29 08:11:40;;;;;;;6.32;3.97;;;2.60;99.90;;;;;;4943947;28;20043;-50
2022/01/29 08:14:05;;;;;;;14.43;5.90;;;2.60;99.90;;;;;;4940090;28;20094;-49
2022/01/29 08:16:31;;;;;;;6.32;3.65;;;2.70;99.90;;;;;;4937408;28;20068;-50
2022/01/29 08:18:57;;;;;;;7.82;4.32;;;2.70;99.90;;;;;;4935134;28;20023;-51
2022/01/29 08:21:23;;;;;;;12.70;5.30;;;2.70;99.90;;;;;;4937529;28;20496;-50
2022/01/29 08:23:49;;;;;;;11.55;4.70;;;2.70;99.90;;;;;;4936007;28;20547;-51
2022/01/29 08:26:15;;;;;;;7.70;4.43;;;2.80;99.90;;;;;;4936224;28;20046;-50
2022/01/29 08:28:41;;;;;;;15.00;7.30;;;2.80;99.90;;;;;;4937014;28;20083;-50
2022/01/29 08:31:07;;;;;;;7.43;4.82;;;2.80;99.90;;;;;;4936611;28;20036;-50
2022/01/29 08:33:33;;;;;;;6.00;3.92;;;2.90;99.90;;;;;;4937192;28;20039;-51
2022/01/29 08:35:59;;;;;;;21.83;10.65;;;2.90;99.90;;;;;;4939334;28;20034;-50
2022/01/29 08:38:25;;;;;;;13.75;7.32;;;2.90;99.90;;;;;;4938600;28;20765;-50
2022/01/29 08:40:52;;;;;;;17.98;8.63;;;2.90;99.90;;;;;;4935761;28;20036;-50
2022/01/29 08:43:18;;;;;;;11.40;5.43;;;2.90;99.90;;;;;;4935928;28;20032;-50
2022/01/29 08:45:44;;;;;;;10.98;5.75;;;2.90;99.90;;;;;;4939161;28;20369;-51
2022/01/29 08:48:10;;;;;;;19.63;10.45;;;2.90;99.90;;;;;;4935194;28;20054;-50
2022/01/29 08:50:35;;;;;;;9.50;5.57;;;2.90;99.90;;;;;;4936636;28;20031;-49
2022/01/29 08:53:01;;;;;;;15.85;8.27;;;3.00;99.90;;;;;;4935929;28;20035;-51
2022/01/29 08:55:27;;;;;;;9.27;5.10;;;3.00;99.90;;;;;;4934246;28;20020;-49
2022/01/29 08:57:52;;;;;;;16.33;7.15;;;3.00;99.90;;;;;;4933278;28;20554;-49
2022/01/29 09:00:19;;;;;;;11.35;6.60;;;3.00;99.90;;;;;;4936547;28;20031;-50
2022/01/29 09:02:44;;;;;;;10.07;6.03;;;3.00;99.90;;;;;;4935522;28;20057;-50
2022/01/29 09:05:12;;;;;;;10.98;5.35;;;3.00;99.90;;;;;;4935037;28;20163;-49
2022/01/29 09:07:37;;;;;;;11.70;6.38;;;3.00;99.90;;;;;;4937535;28;20441;-50
2022/01/29 09:10:04;;;;;;;20.60;10.35;;;3.00;99.90;;;;;;4943921;28;20039;-50
2022/01/29 09:12:30;;;;;;;13.32;7.10;;;3.10;99.90;;;;;;4944145;28;20031;-51
2022/01/29 09:14:56;;;;;;;9.13;5.15;;;3.10;99.90;;;;;;4941054;28;20058;-51
2022/01/29 09:17:22;;;;;;;9.10;5.40;;;3.10;99.90;;;;;;4946470;28;20015;-50
2022/01/29 09:19:47;;;;;;;10.68;4.95;;;3.10;99.90;;;;;;4948654;28;20042;-52
2022/01/29 09:22:13;;;;;;;9.43;4.97;;;3.20;99.90;;;;;;4945918;28;20038;-51
2022/01/29 09:24:39;;;;;;;8.15;4.45;;;3.20;99.90;;;;;;4950954;28;20038;-49
2022/01/29 09:27:05;;;;;;;7.97;4.22;;;3.20;99.90;;;;;;4934680;28;20152;-50
2022/01/29 09:29:31;;;;;;;7.53;5.30;;;3.20;99.90;;;;;;4934560;28;20093;-50
2022/01/29 09:31:57;;;;;;;6.63;4.53;;;3.20;99.90;;;;;;4944590;28;20047;-50
2022/01/29 09:34:23;;;;;;;8.27;4.72;;;3.20;99.90;;;;;;4942835;28;20062;-51
2022/01/29 09:36:48;;;;;;;7.28;4.15;;;3.30;99.90;;;;;;4944483;28;20086;-49
2022/01/29 09:39:14;;;;;;;7.53;4.57;;;3.30;99.90;;;;;;4945755;28;20116;-51
2022/01/29 09:41:44;;;;;;;9.52;5.22;;;3.30;99.90;;;;;;4946225;28;20031;-50
2022/01/29 09:44:11;;;;;;;8.68;4.57;;;3.30;99.90;;;;;;4948892;28;20057;-50
2022/01/29 09:46:37;;;;;;;8.52;4.63;;;3.30;99.90;;;;;;4948490;28;20046;-50
2022/01/29 09:49:04;;;;;;;10.15;4.32;;;3.40;99.90;;;;;;4942842;28;20798;-51
2022/01/29 09:51:31;;;;;;;8.27;4.40;;;3.40;99.90;;;;;;4940985;28;20039;-50
2022/01/29 09:53:56;;;;;;;5.60;4.18;;;3.40;99.90;;;;;;4939638;28;20210;-51
2022/01/29 09:56:22;;;;;;;12.85;5.03;;;3.40;99.90;;;;;;4944458;28;20563;-49
2022/01/29 09:58:48;;;;;;;8.55;3.95;;;3.40;99.90;;;;;;4942073;28;20098;-50
2022/01/29 10:01:13;;;;;;;7.53;4.65;;;3.40;99.90;;;;;;4940302;28;20193;-50
2022/01/29 10:03:39;;;;;;;5.40;4.55;;;3.50;99.90;;;;;;4941058;28;20584;-50
2022/01/29 10:06:05;;;;;;;6.30;4.93;;;3.50;99.90;;;;;;4937332;28;20038;-51
2022/01/29 10:08:44;;;;;;;7.85;4.60;;;3.50;99.90;;;;;;4937461;28;20049;-50
2022/01/29 10:11:30;;;;;;;10.25;4.80;;;3.60;99.90;;;;;;4935966;28;20031;-50
2022/01/29 10:14:01;;;;;;;6.00;4.40;;;3.60;99.90;;;;;;4944075;28;20041;-50
2022/01/29 10:16:29;;;;;;;10.48;4.60;;;3.60;99.90;;;;;;4945947;28;20066;-50
2022/01/29 10:18:59;;;;;;;;;;;3.60;99.90;;;;;;4947504;28;20106;-50
2022/01/29 10:21:29;;;;;;;6.03;3.80;;;3.70;99.90;;;;;;4948221;28;19945;-50
2022/01/29 10:24:09;;;;;;;9.30;4.90;;;3.70;99.90;;;;;;4945352;28;20035;-49
2022/01/29 10:26:43;;;;;;;6.93;4.70;;;3.70;99.90;;;;;;4943924;28;20032;-50
2022/01/29 10:29:21;;;;;;;8.43;4.32;;;3.80;99.90;;;;;;4944789;28;20042;-49
2022/01/29 10:31:55;;;;;;;5.87;4.17;;;3.80;99.90;;;;;;4947174;28;20047;-49
2022/01/29 10:34:35;;;;;;;5.03;4.25;;;3.80;99.90;;;;;;4946037;28;20039;-50
2022/01/29 10:37:22;;;;;;;15.43;8.18;;;3.80;99.90;;;;;;4945067;28;20102;-50
2022/01/29 10:39:56;;;;;;;11.18;6.00;;;3.90;99.90;;;;;;4943403;28;20034;-51
2022/01/29 10:42:36;;;;;;;9.32;5.47;;;3.90;99.90;;;;;;4946257;28;20027;-50
2022/01/29 10:45:07;;;;;;;12.65;4.95;;;3.90;99.90;;;;;;4944999;28;20038;-52
2022/01/29 10:47:52;;;;;;;12.27;6.32;;;3.90;99.90;;;;;;4946801;28;20034;-50
2022/01/29 10:50:18;;;;;;;27.33;13.20;;;3.90;99.90;;;;;;4938170;28;20035;-50
2022/01/29 10:52:44;;;;;;;10.38;4.78;;;4.00;99.90;;;;;;4943462;28;20035;-50
2022/01/29 10:55:10;;;;;;;7.75;4.10;;;3.90;99.90;;;;;;4945891;28;20035;-50
2022/01/29 10:57:40;;;;;;;7.70;3.80;;;4.00;99.90;;;;;;4939605;28;21683;-50
2022/01/29 11:00:24;;;;;;;4.00;2.75;;;4.00;99.90;;;;;;4944512;28;20473;-51
2022/01/29 11:02:54;;;;;;;7.80;4.43;;;4.10;99.90;;;;;;4941964;28;20047;-51
2022/01/29 11:05:24;;;;;;;6.55;3.67;;;4.20;99.90;;;;;;4945545;28;21125;-51
2022/01/29 11:07:51;;;;;;;7.55;3.38;;;4.20;99.90;;;;;;4942348;28;20045;-51
2022/01/29 11:10:19;;;;;;;7.43;3.60;;;4.30;99.90;;;;;;4943776;28;20032;-53
2022/01/29 11:12:47;;;;;;;7.28;3.28;;;4.40;99.90;;;;;;4942293;28;20400;-50
2022/01/29 11:15:16;;;;;;;6.78;3.65;;;4.40;99.90;;;;;;4943870;28;20122;-51
2022/01/29 11:17:43;;;;;;;4.32;3.55;;;4.40;99.90;;;;;;4938325;28;20468;-50
2022/01/29 11:20:11;;;;;;;7.45;3.30;;;4.40;99.90;;;;;;4939734;28;20042;-50
2022/01/29 11:22:40;;;;;;;7.95;4.28;;;4.40;99.90;;;;;;4940138;28;20062;-52
2022/01/29 11:25:12;;;;;;;5.03;3.17;;;4.50;99.90;;;;;;4941903;28;20027;-50
2022/01/29 11:27:39;;;;;;;5.60;3.70;;;4.50;99.90;;;;;;4939797;28;20038;-50
2022/01/29 11:30:10;;;;;;;5.95;4.38;;;4.60;99.90;;;;;;4941837;28;20042;-50
2022/01/29 11:32:39;;;;;;;4.32;3.55;;;4.60;99.90;;;;;;4937781;28;20419;-53
2022/01/29 11:35:34;;;;;;;8.68;3.78;;;4.60;99.90;;;;;;4946568;28;20056;-52
2022/01/29 11:38:02;;;;;;;5.07;3.45;;;4.70;99.90;;;;;;4940511;28;20039;-51
2022/01/29 11:40:51;;;;;;;;;;;4.70;99.90;;;;;;4940242;28;20027;-51
2022/01/29 11:43:19;;;;;;;5.85;3.60;;;4.70;99.90;;;;;;4936528;28;19913;-51
2022/01/29 11:45:55;;;;;;;;;;;4.80;99.90;;;;;;4936885;28;20795;-51
2022/01/29 11:50:53;;;;;;;5.50;3.38;;;4.80;99.90;;;;;;4940884;28;20121;-50
2022/01/29 11:53:20;;;;;;;6.70;3.15;;;4.90;99.90;;;;;;4942535;28;20043;-52
2022/01/29 11:55:55;;;;;;;4.20;2.90;;;5.00;99.90;;;;;;4942599;28;20047;-51
2022/01/29 11:58:21;;;;;;;5.82;3.50;;;5.00;99.90;;;;;;4940525;28;20086;-51
2022/01/29 12:00:52;;;;;;;3.40;3.05;;;5.00;99.90;;;;;;4937247;28;20043;-51
2022/01/29 12:03:45;;;;;;;4.43;2.97;;;5.00;99.90;;;;;;4938597;28;20058;-52
2022/01/29 12:06:26;;;;;;;5.60;3.33;;;5.10;99.90;;;;;;4941990;28;20031;-51
2022/01/29 12:09:02;;;;;;;4.57;3.05;;;5.10;99.90;;;;;;4942501;28;20034;-50
2022/01/29 12:11:28;;;;;;;4.90;3.30;;;5.10;99.90;;;;;;4937981;28;20043;-50
2022/01/29 12:14:12;;;;;;;3.20;2.60;;;5.10;99.90;;;;;;4934833;28;20121;-50
2022/01/29 12:16:50;;;;;;;3.92;2.75;;;5.20;99.90;;;;;;4938637;28;20094;-51
2022/01/29 12:19:41;;;;;;;5.80;2.83;;;5.20;99.90;;;;;;4939236;28;20035;-50
2022/01/29 12:22:12;;;;;;;4.00;3.10;;;5.20;99.90;;;;;;4938317;28;20607;-49
2022/01/29 12:24:39;;;;;;;3.70;2.63;;;5.30;99.90;;;;;;4947342;28;20066;-49
2022/01/29 12:27:06;;;;;;;4.57;2.60;;;5.30;99.90;;;;;;4940054;28;20035;-50
2022/01/29 12:29:32;;;;;;;4.53;3.03;;;5.30;99.90;;;;;;4942986;28;20039;-50
2022/01/29 12:31:58;;;;;;;4.53;2.70;;;5.30;99.90;;;;;;4941512;28;20377;-51
2022/01/29 12:34:25;;;;;;;2.92;2.47;;;5.30;99.90;;;;;;4940049;28;20031;-50
2022/01/29 12:36:51;;;;;;;5.03;2.70;;;5.40;99.90;;;;;;4941620;28;20392;-51
2022/01/29 12:39:24;;;;;;;2.65;2.03;;;5.40;99.90;;;;;;4940234;28;20154;-50
2022/01/29 12:42:42;;;;;;;2.88;2.10;;;5.50;99.90;;;;;;4935642;28;20027;-49
2022/01/29 12:44:54;;;;;;;2.63;2.08;;;5.50;99.90;;;;;;4939808;28;20070;-49
2022/01/29 12:47:30;;;;;;;2.35;1.98;;;5.60;99.90;;;;;;4936592;28;20031;-51
2022/01/29 12:49:57;;;;;;;3.83;2.40;;;5.60;99.90;;;;;;4938154;28;20453;-50
2022/01/29 12:52:23;;;;;;;3.88;2.58;;;5.70;99.90;;;;;;4936052;28;20019;-50
2022/01/29 12:54:54;;;;;;;3.33;1.85;;;5.70;99.90;;;;;;4939118;28;20090;-53
2022/01/29 12:57:21;;;;;;;4.68;2.45;;;5.70;99.90;;;;;;4943882;28;20055;-50
2022/01/29 12:59:48;;;;;;;2.97;2.22;;;5.80;99.90;;;;;;4937674;28;20038;-49
2022/01/29 13:02:14;;;;;;;1.90;1.80;;;5.80;99.90;;;;;;4939526;28;20062;-50
2022/01/29 13:04:44;;;;;;;2.35;2.10;;;5.80;99.90;;;;;;4932989;28;20488;-51
2022/01/29 13:07:10;;;;;;;2.58;2.38;;;5.80;99.90;;;;;;4936429;28;20668;-50
2022/01/29 13:09:36;;;;;;;3.25;2.08;;;5.80;99.90;;;;;;4934546;28;20543;-57
2022/01/29 13:12:12;;;;;;;3.45;2.25;;;5.90;99.90;;;;;;4939537;28;20090;-50